M/T Filos — 9HQB8 — position and weather

sailwx.info

Track history (hours):
 
Tides and Currents Weather Stations Pressure Air Temp Water Temp Dewpoint Dewpoint Depression Visibility Wind Speed Wind Dir Waves Ship Positions

M/T Filos

Last reported at 2016-Aug-25 09:05 UTC. Time now 2016-Aug-25 11:31 UTC.
Position N 45°11' W 000°43'.

Length 180 m; draft 7.4 m.

Type: Tanker. MMSI: 224561000.

Date/timePositionNaut miles runAvg speedWind from/ knotsBaromVisibWave heightAir tempDewpointWater temp
2016-Aug-25 09:05N 45°11' W 000°43'712.6
2016-Aug-25 08:33N 45°17' W 000°46'1312.7
2016-Aug-25 07:33N 45°28' W 000°55'1512.4
2016-Aug-25 06:20N 45°39' W 001°10'12 6.9
2016-Aug-25 04:32N 45°36' W 001°27'0 0.0
2016-Aug-25 03:26N 45°36' W 001°27'0 0.0
2016-Aug-25 02:32N 45°36' W 001°27'0 0.0
2016-Aug-25 01:32N 45°36' W 001°27'0 0.0
2016-Aug-25 00:32N 45°36' W 001°27'0 0.0
2016-Aug-24 23:32N 45°36' W 001°27'0 0.0
2016-Aug-24 21:29N 45°36' W 001°27'0 0.0
2016-Aug-24 20:32N 45°36' W 001°27'0 0.0
2016-Aug-24 19:33N 45°36' W 001°27'9 9.1
2016-Aug-24 18:33N 45°41' W 001°38'1212.1
2016-Aug-24 17:33N 45°47' W 001°53'1312.5
2016-Aug-24 16:34N 45°53' W 002°09'1212.3
2016-Aug-24 15:33N 45°59' W 002°24'1111.3
2016-Aug-24 14:33N 46°05' W 002°39'1111.5
2016-Aug-24 13:34N 46°11' W 002°53'1211.4
2016-Aug-24 12:32N 46°19' W 003°05'1311.8
2016-Aug-24 11:27N 46°28' W 003°17'1011.0
2016-Aug-24 10:34N 46°36' W 003°27'1211.7
2016-Aug-24 09:33N 46°44' W 003°39'1211.9
2016-Aug-24 08:33N 46°52' W 003°52'1111.0
2016-Aug-24 07:33N 46°60' W 004°04'1 1.3
2016-Aug-24 06:33N 47°00' W 004°05'2311.5
2016-Aug-24 04:33N 47°16' W 004°30'1211.6
2016-Aug-24 03:32N 47°25' W 004°41'1111.0
2016-Aug-24 02:33N 47°33' W 004°51'1211.7
2016-Aug-24 01:34N 47°42' W 005°02'1211.8
2016-Aug-24 00:33N 47°51' W 005°14'1212.3
2016-Aug-23 23:33N 48°01' W 005°25'1212.5
2016-Aug-23 22:33N 48°11' W 005°36'1212.2
2016-Aug-23 21:32N 48°22' W 005°46'1111.7
2016-Aug-23 20:33N 48°32' W 005°52'1010.1
2016-Aug-23 19:33N 48°42' W 005°53'1010.0
2016-Aug-23 18:33N 48°51' W 005°46'10 9.8
2016-Aug-23 17:33N 48°58' W 005°35'1010.3
2016-Aug-23 16:33N 49°04' W 005°22'1110.9
2016-Aug-23 15:33N 49°09' W 005°08'1511.9
2016-Aug-23 14:19N 49°17' W 004°49'2111.8
2016-Aug-23 12:33N 49°27' W 004°21'1110.9
2016-Aug-23 11:33N 49°33' W 004°06'1010.0
2016-Aug-23 10:33N 49°37' W 003°53'9 9.4
2016-Aug-23 09:33N 49°41' W 003°40'9 9.1
2016-Aug-23 08:33N 49°46' W 003°28'10 9.7
2016-Aug-23 07:33N 49°51' W 003°15'1111.1
2016-Aug-23 06:33N 49°56' W 002°59'1312.9
2016-Aug-23 05:33N 50°00' W 002°40'1414.4
2016-Aug-23 04:33N 50°05' W 002°19'1514.7
2016-Aug-23 03:33N 50°09' W 001°57'1313.2
2016-Aug-23 02:33N 50°12' W 001°37'1111.2
2016-Aug-23 01:33N 50°15' W 001°20'9 9.2
2016-Aug-23 00:33N 50°17' W 001°06'8 7.9
2016-Aug-22 23:33N 50°20' W 000°54'8 7.7
2016-Aug-22 22:33N 50°22' W 000°43'9 8.6
2016-Aug-22 21:33N 50°24' W 000°30'1110.6
2016-Aug-22 20:33N 50°27' W 000°14'1212.1
2016-Aug-22 19:34N 50°31' E 000°04'1312.6
2016-Aug-22 18:33N 50°34' E 000°23'1212.2
2016-Aug-22 17:33N 50°39' E 000°42'1411.1
2016-Aug-22 16:17N 50°48' E 000°58'8 9.5
2016-Aug-22 15:29N 50°53' E 001°07'8 8.4
2016-Aug-22 14:32N 50°58' E 001°17'7 7.5
2016-Aug-22 13:34N 51°03' E 001°25'9 8.9
2016-Aug-22 12:33N 51°09' E 001°37'1111.3
2016-Aug-22 11:33N 51°16' E 001°49'1111.3
2016-Aug-22 10:33N 51°24' E 002°03'1110.7
2016-Aug-22 09:33N 51°21' E 002°19'1111.3
2016-Aug-22 08:33N 51°23' E 002°37'1010.0
2016-Aug-22 07:34N 51°23' E 002°53'1110.7
2016-Aug-22 06:33N 51°24' E 003°10'1110.9
2016-Aug-22 05:34N 51°25' E 003°28'9 9.4
2016-Aug-22 04:33N 51°24' E 003°43'6 6.0
2016-Aug-22 03:34N 51°20' E 003°49'7 6.6
2016-Aug-22 02:33N 51°13' E 003°48'7 7.4
2016-Aug-22 01:33N 51°06' E 003°44'1 1.2
2016-Aug-22 00:31N 51°05' E 003°44'0 0.0
2016-Aug-21 23:31N 51°05' E 003°44'0 0.0
2016-Aug-21 22:31N 51°05' E 003°44'0 0.0
2016-Aug-21 21:31N 51°05' E 003°44'0 0.0
2016-Aug-21 20:31N 51°05' E 003°44'0 0.0
2016-Aug-21 19:31N 51°05' E 003°44'0 0.0
2016-Aug-21 18:31N 51°05' E 003°44'0 0.0
2016-Aug-21 17:31N 51°05' E 003°44'0 0.0
2016-Aug-21 16:22N 51°05' E 003°44'0 0.0
2016-Aug-21 15:31N 51°05' E 003°44'0 0.0
2016-Aug-21 14:25N 51°05' E 003°44'0 0.0
2016-Aug-21 13:31N 51°05' E 003°44'0 0.0
2016-Aug-21 12:31N 51°05' E 003°44'0 0.0
2016-Aug-21 11:31N 51°05' E 003°44'0 0.0
2016-Aug-21 10:31N 51°05' E 003°44'0 0.0
2016-Aug-21 09:31N 51°05' E 003°44'0 0.0
2016-Aug-21 08:31N 51°05' E 003°44'0 0.0
2016-Aug-21 07:31N 51°05' E 003°44'0 0.0
2016-Aug-21 06:31N 51°05' E 003°44'0 0.0
2016-Aug-21 05:31N 51°05' E 003°44'0 0.0
2016-Aug-21 04:31N 51°05' E 003°44'0 0.0
2016-Aug-21 03:31N 51°05' E 003°44'0 0.0
2016-Aug-21 02:31N 51°05' E 003°44'0 0.0
2016-Aug-21 01:31N 51°05' E 003°44'0 0.0
2016-Aug-21 00:31N 51°05' E 003°44'0 0.0
2016-Aug-20 23:31N 51°05' E 003°44'0 0.0
2016-Aug-20 22:31N 51°05' E 003°44'0 0.0
2016-Aug-20 21:31N 51°05' E 003°44'0 0.0
2016-Aug-20 20:31N 51°05' E 003°44'0 0.0
2016-Aug-20 19:31N 51°05' E 003°44'0 0.0
2016-Aug-20 18:25N 51°05' E 003°44'0 0.0
2016-Aug-20 17:31N 51°05' E 003°44'0 0.0
2016-Aug-20 16:31N 51°05' E 003°44'0 0.0
2016-Aug-20 15:31N 51°05' E 003°44'0 0.0
2016-Aug-20 14:31N 51°05' E 003°44'0 0.0
2016-Aug-20 13:28N 51°05' E 003°44'0 0.0
2016-Aug-20 12:31N 51°05' E 003°44'0 0.0
2016-Aug-20 11:31N 51°05' E 003°44'0 0.0
2016-Aug-20 10:28N 51°05' E 003°44'0 0.0
2016-Aug-20 09:31N 51°05' E 003°44'0 0.0
2016-Aug-20 08:31N 51°05' E 003°44'0 0.0
2016-Aug-20 07:31N 51°05' E 003°44'0 0.0
2016-Aug-20 06:28N 51°05' E 003°44'0 0.0
2016-Aug-20 05:31N 51°05' E 003°44'0 0.0
2016-Aug-20 04:28N 51°05' E 003°44'0 0.0
2016-Aug-20 03:31N 51°05' E 003°44'0 0.0
2016-Aug-20 02:28N 51°05' E 003°44'1 0.8
2016-Aug-20 01:34N 51°06' E 003°44'7 6.6
2016-Aug-20 00:34N 51°12' E 003°48'7 6.8
2016-Aug-19 23:34N 51°18' E 003°50'2 1.8
2016-Aug-19 22:33N 51°20' E 003°49'7 6.8
2016-Aug-19 21:34N 51°25' E 003°42'10 9.9
2016-Aug-19 20:33N 51°30' E 003°28'1211.7
2016-Aug-19 19:34N 51°40' E 003°18'9 3.7
2016-Aug-19 17:13N 51°48' E 003°23'0 0.0
2016-Aug-19 16:31N 51°48' E 003°23'0 0.0
2016-Aug-19 11:16N 51°48' E 003°23'0 0.0
2016-Aug-19 10:22N 51°48' E 003°23'0 0.0
2016-Aug-19 09:25N 51°48' E 003°23'0 0.0
2016-Aug-19 08:33N 51°48' E 003°23'0 0.0
2016-Aug-19 07:33N 51°48' E 003°23'0 0.1
2016-Aug-19 06:25N 51°48' E 003°23'0 0.0
2016-Aug-19 05:31N 51°48' E 003°23'0 0.1
2016-Aug-19 04:33N 51°48' E 003°23'0 0.0
2016-Aug-19 03:25N 51°48' E 003°23'0 0.0
2016-Aug-19 02:16N 51°48' E 003°23'0 0.0
2016-Aug-19 01:30N 51°48' E 003°24'0 0.1
2016-Aug-18 23:22N 51°48' E 003°23'0 0.0
2016-Aug-18 22:28N 51°48' E 003°23'0 0.0
2016-Aug-18 21:33N 51°48' E 003°23'0 0.0
2016-Aug-18 20:33N 51°48' E 003°23'0 0.0
2016-Aug-18 19:33N 51°48' E 003°23'0 0.0
2016-Aug-18 18:33N 51°48' E 003°23'0 0.0
2016-Aug-18 17:33N 51°48' E 003°23'0 0.0
2016-Aug-18 16:33N 51°48' E 003°23'0 0.1
2016-Aug-18 15:33N 51°48' E 003°23'0 0.0
2016-Aug-18 14:25N 51°48' E 003°23'0 0.0
2016-Aug-18 13:33N 51°48' E 003°23'0 0.1
2016-Aug-18 12:33N 51°48' E 003°23'0 0.1
2016-Aug-18 11:28N 51°48' E 003°23'0 0.0
2016-Aug-18 10:22N 51°48' E 003°23'0 0.0
2016-Aug-18 09:30N 51°48' E 003°23'0 0.0
2016-Aug-18 08:31N 51°48' E 003°23'0 0.0
2016-Aug-18 07:33N 51°48' E 003°23'0 0.0
2016-Aug-18 06:33N 51°48' E 003°23'0 0.0
2016-Aug-18 05:28N 51°48' E 003°23'0 0.1
2016-Aug-18 04:28N 51°48' E 003°23'0 0.1
2016-Aug-18 03:33N 51°48' E 003°23'0 0.0
2016-Aug-18 02:31N 51°48' E 003°23'0 0.0
2016-Aug-18 01:33N 51°48' E 003°24'0 0.0
2016-Aug-18 00:33N 51°48' E 003°24'0 0.2
2016-Aug-17 23:33N 51°48' E 003°23'0 0.0
2016-Aug-17 22:33N 51°48' E 003°23'0 0.0
2016-Aug-17 21:33N 51°48' E 003°23'0 0.0
2016-Aug-17 20:33N 51°48' E 003°23'0 0.0
2016-Aug-17 19:33N 51°48' E 003°23'0 0.0
2016-Aug-17 18:13N 51°48' E 003°23'0 0.0
2016-Aug-17 17:33N 51°48' E 003°23'0 0.0
2016-Aug-17 16:27N 51°48' E 003°23'0 0.1
2016-Aug-17 15:28N 51°48' E 003°23'0 0.0
2016-Aug-17 14:33N 51°48' E 003°23'0 0.0
2016-Aug-17 13:33N 51°48' E 003°23'0 0.0
2016-Aug-17 12:28N 51°48' E 003°24'0 0.2
2016-Aug-17 11:31N 51°48' E 003°23'0 0.0
2016-Aug-17 08:30N 51°48' E 003°23'0 0.0
2016-Aug-17 07:33N 51°48' E 003°23'0 0.0
2016-Aug-17 06:33N 51°48' E 003°23'0 0.0
2016-Aug-17 05:31N 51°48' E 003°23'0 0.0
2016-Aug-17 04:27N 51°48' E 003°23'0 0.0
2016-Aug-17 03:33N 51°48' E 003°23'0 0.1
2016-Aug-17 02:33N 51°48' E 003°23'0 0.0
2016-Aug-17 01:33N 51°48' E 003°23'0 0.0
2016-Aug-17 00:07N 51°48' E 003°23'0 0.1
2016-Aug-16 23:33N 51°48' E 003°23'0 0.1
2016-Aug-16 22:24N 51°48' E 003°23'0 0.0
2016-Aug-16 20:28N 51°48' E 003°23'0 0.0
2016-Aug-16 19:12N 51°48' E 003°23'0 0.0
2016-Aug-16 18:18N 51°48' E 003°23'0 0.0
2016-Aug-16 15:24N 51°48' E 003°23'0 0.0
2016-Aug-16 08:13N 51°48' E 003°23'0 0.0
2016-Aug-16 07:33N 51°48' E 003°23'0 0.0
2016-Aug-16 04:33N 51°48' E 003°23'0 0.0
2016-Aug-16 03:33N 51°48' E 003°23'0 0.0
2016-Aug-16 02:33N 51°48' E 003°23'0 0.1
2016-Aug-16 01:31N 51°48' E 003°23'0 0.0
2016-Aug-16 00:25N 51°48' E 003°23'0 0.0
2016-Aug-15 21:24N 51°48' E 003°23'  
Track history (hours):
 
Tides and Currents Weather Stations Pressure Air Temp Water Temp Dewpoint Dewpoint Depression Visibility Wind Speed Wind Dir Waves Ship Positions

M/T Filos

Last reported at 2016-Aug-25 09:05 UTC. Time now 2016-Aug-25 11:31 UTC.
Position N 45°11' W 000°43'.

Length 180 m; draft 7.4 m.

Type: Tanker. MMSI: 224561000.

Date/timePositionNaut miles runAvg speedWind from/ knotsBaromVisibWave heightAir tempDewpointWater temp
2016-Aug-25 09:05N 45°11' W 000°43'712.6
2016-Aug-25 08:33N 45°17' W 000°46'1312.7
2016-Aug-25 07:33N 45°28' W 000°55'1512.4
2016-Aug-25 06:20N 45°39' W 001°10'12 6.9
2016-Aug-25 04:32N 45°36' W 001°27'0 0.0
2016-Aug-25 03:26N 45°36' W 001°27'0 0.0
2016-Aug-25 02:32N 45°36' W 001°27'0 0.0
2016-Aug-25 01:32N 45°36' W 001°27'0 0.0
2016-Aug-25 00:32N 45°36' W 001°27'0 0.0
2016-Aug-24 23:32N 45°36' W 001°27'0 0.0
2016-Aug-24 21:29N 45°36' W 001°27'0 0.0
2016-Aug-24 20:32N 45°36' W 001°27'0 0.0
2016-Aug-24 19:33N 45°36' W 001°27'9 9.1
2016-Aug-24 18:33N 45°41' W 001°38'1212.1
2016-Aug-24 17:33N 45°47' W 001°53'1312.5
2016-Aug-24 16:34N 45°53' W 002°09'1212.3
2016-Aug-24 15:33N 45°59' W 002°24'1111.3
2016-Aug-24 14:33N 46°05' W 002°39'1111.5
2016-Aug-24 13:34N 46°11' W 002°53'1211.4
2016-Aug-24 12:32N 46°19' W 003°05'1311.8
2016-Aug-24 11:27N 46°28' W 003°17'1011.0
2016-Aug-24 10:34N 46°36' W 003°27'1211.7
2016-Aug-24 09:33N 46°44' W 003°39'1211.9
2016-Aug-24 08:33N 46°52' W 003°52'1111.0
2016-Aug-24 07:33N 46°60' W 004°04'1 1.3
2016-Aug-24 06:33N 47°00' W 004°05'2311.5
2016-Aug-24 04:33N 47°16' W 004°30'1211.6
2016-Aug-24 03:32N 47°25' W 004°41'1111.0
2016-Aug-24 02:33N 47°33' W 004°51'1211.7
2016-Aug-24 01:34N 47°42' W 005°02'1211.8
2016-Aug-24 00:33N 47°51' W 005°14'1212.3
2016-Aug-23 23:33N 48°01' W 005°25'1212.5
2016-Aug-23 22:33N 48°11' W 005°36'1212.2
2016-Aug-23 21:32N 48°22' W 005°46'1111.7
2016-Aug-23 20:33N 48°32' W 005°52'1010.1
2016-Aug-23 19:33N 48°42' W 005°53'1010.0
2016-Aug-23 18:33N 48°51' W 005°46'10 9.8
2016-Aug-23 17:33N 48°58' W 005°35'1010.3
2016-Aug-23 16:33N 49°04' W 005°22'1110.9
2016-Aug-23 15:33N 49°09' W 005°08'1511.9
2016-Aug-23 14:19N 49°17' W 004°49'2111.8
2016-Aug-23 12:33N 49°27' W 004°21'1110.9
2016-Aug-23 11:33N 49°33' W 004°06'1010.0
2016-Aug-23 10:33N 49°37' W 003°53'9 9.4
2016-Aug-23 09:33N 49°41' W 003°40'9 9.1
2016-Aug-23 08:33N 49°46' W 003°28'10 9.7
2016-Aug-23 07:33N 49°51' W 003°15'1111.1
2016-Aug-23 06:33N 49°56' W 002°59'1312.9
2016-Aug-23 05:33N 50°00' W 002°40'1414.4
2016-Aug-23 04:33N 50°05' W 002°19'1514.7
2016-Aug-23 03:33N 50°09' W 001°57'1313.2
2016-Aug-23 02:33N 50°12' W 001°37'1111.2
2016-Aug-23 01:33N 50°15' W 001°20'9 9.2
2016-Aug-23 00:33N 50°17' W 001°06'8 7.9
2016-Aug-22 23:33N 50°20' W 000°54'8 7.7
2016-Aug-22 22:33N 50°22' W 000°43'9 8.6
2016-Aug-22 21:33N 50°24' W 000°30'1110.6
2016-Aug-22 20:33N 50°27' W 000°14'1212.1
2016-Aug-22 19:34N 50°31' E 000°04'1312.6
2016-Aug-22 18:33N 50°34' E 000°23'1212.2
2016-Aug-22 17:33N 50°39' E 000°42'1411.1
2016-Aug-22 16:17N 50°48' E 000°58'8 9.5
2016-Aug-22 15:29N 50°53' E 001°07'8 8.4
2016-Aug-22 14:32N 50°58' E 001°17'7 7.5
2016-Aug-22 13:34N 51°03' E 001°25'9 8.9
2016-Aug-22 12:33N 51°09' E 001°37'1111.3
2016-Aug-22 11:33N 51°16' E 001°49'1111.3
2016-Aug-22 10:33N 51°24' E 002°03'1110.7
2016-Aug-22 09:33N 51°21' E 002°19'1111.3
2016-Aug-22 08:33N 51°23' E 002°37'1010.0
2016-Aug-22 07:34N 51°23' E 002°53'1110.7
2016-Aug-22 06:33N 51°24' E 003°10'1110.9
2016-Aug-22 05:34N 51°25' E 003°28'9 9.4
2016-Aug-22 04:33N 51°24' E 003°43'6 6.0
2016-Aug-22 03:34N 51°20' E 003°49'7 6.6
2016-Aug-22 02:33N 51°13' E 003°48'7 7.4
2016-Aug-22 01:33N 51°06' E 003°44'1 1.2
2016-Aug-22 00:31N 51°05' E 003°44'0 0.0
2016-Aug-21 23:31N 51°05' E 003°44'0 0.0
2016-Aug-21 22:31N 51°05' E 003°44'0 0.0
2016-Aug-21 21:31N 51°05' E 003°44'0 0.0
2016-Aug-21 20:31N 51°05' E 003°44'0 0.0
2016-Aug-21 19:31N 51°05' E 003°44'0 0.0
2016-Aug-21 18:31N 51°05' E 003°44'0 0.0
2016-Aug-21 17:31N 51°05' E 003°44'0 0.0
2016-Aug-21 16:22N 51°05' E 003°44'0 0.0
2016-Aug-21 15:31N 51°05' E 003°44'0 0.0
2016-Aug-21 14:25N 51°05' E 003°44'0 0.0
2016-Aug-21 13:31N 51°05' E 003°44'0 0.0
2016-Aug-21 12:31N 51°05' E 003°44'0 0.0
2016-Aug-21 11:31N 51°05' E 003°44'0 0.0
2016-Aug-21 10:31N 51°05' E 003°44'0 0.0
2016-Aug-21 09:31N 51°05' E 003°44'0 0.0
2016-Aug-21 08:31N 51°05' E 003°44'0 0.0
2016-Aug-21 07:31N 51°05' E 003°44'0 0.0
2016-Aug-21 06:31N 51°05' E 003°44'0 0.0
2016-Aug-21 05:31N 51°05' E 003°44'0 0.0
2016-Aug-21 04:31N 51°05' E 003°44'0 0.0
2016-Aug-21 03:31N 51°05' E 003°44'0 0.0
2016-Aug-21 02:31N 51°05' E 003°44'0 0.0
2016-Aug-21 01:31N 51°05' E 003°44'0 0.0
2016-Aug-21 00:31N 51°05' E 003°44'0 0.0
2016-Aug-20 23:31N 51°05' E 003°44'0 0.0
2016-Aug-20 22:31N 51°05' E 003°44'0 0.0
2016-Aug-20 21:31N 51°05' E 003°44'0 0.0
2016-Aug-20 20:31N 51°05' E 003°44'0 0.0
2016-Aug-20 19:31N 51°05' E 003°44'0 0.0
2016-Aug-20 18:25N 51°05' E 003°44'0 0.0
2016-Aug-20 17:31N 51°05' E 003°44'0 0.0
2016-Aug-20 16:31N 51°05' E 003°44'0 0.0
2016-Aug-20 15:31N 51°05' E 003°44'0 0.0
2016-Aug-20 14:31N 51°05' E 003°44'0 0.0
2016-Aug-20 13:28N 51°05' E 003°44'0 0.0
2016-Aug-20 12:31N 51°05' E 003°44'0 0.0
2016-Aug-20 11:31N 51°05' E 003°44'0 0.0
2016-Aug-20 10:28N 51°05' E 003°44'0 0.0
2016-Aug-20 09:31N 51°05' E 003°44'0 0.0
2016-Aug-20 08:31N 51°05' E 003°44'0 0.0
2016-Aug-20 07:31N 51°05' E 003°44'0 0.0
2016-Aug-20 06:28N 51°05' E 003°44'0 0.0
2016-Aug-20 05:31N 51°05' E 003°44'0 0.0
2016-Aug-20 04:28N 51°05' E 003°44'0 0.0
2016-Aug-20 03:31N 51°05' E 003°44'0 0.0
2016-Aug-20 02:28N 51°05' E 003°44'1 0.8
2016-Aug-20 01:34N 51°06' E 003°44'7 6.6
2016-Aug-20 00:34N 51°12' E 003°48'7 6.8
2016-Aug-19 23:34N 51°18' E 003°50'2 1.8
2016-Aug-19 22:33N 51°20' E 003°49'7 6.8
2016-Aug-19 21:34N 51°25' E 003°42'10 9.9
2016-Aug-19 20:33N 51°30' E 003°28'1211.7
2016-Aug-19 19:34N 51°40' E 003°18'9 3.7
2016-Aug-19 17:13N 51°48' E 003°23'0 0.0
2016-Aug-19 16:31N 51°48' E 003°23'0 0.0
2016-Aug-19 11:16N 51°48' E 003°23'0 0.0
2016-Aug-19 10:22N 51°48' E 003°23'0 0.0
2016-Aug-19 09:25N 51°48' E 003°23'0 0.0
2016-Aug-19 08:33N 51°48' E 003°23'0 0.0
2016-Aug-19 07:33N 51°48' E 003°23'0 0.1
2016-Aug-19 06:25N 51°48' E 003°23'0 0.0
2016-Aug-19 05:31N 51°48' E 003°23'0 0.1
2016-Aug-19 04:33N 51°48' E 003°23'0 0.0
2016-Aug-19 03:25N 51°48' E 003°23'0 0.0
2016-Aug-19 02:16N 51°48' E 003°23'0 0.0
2016-Aug-19 01:30N 51°48' E 003°24'0 0.1
2016-Aug-18 23:22N 51°48' E 003°23'0 0.0
2016-Aug-18 22:28N 51°48' E 003°23'0 0.0
2016-Aug-18 21:33N 51°48' E 003°23'0 0.0
2016-Aug-18 20:33N 51°48' E 003°23'0 0.0
2016-Aug-18 19:33N 51°48' E 003°23'0 0.0
2016-Aug-18 18:33N 51°48' E 003°23'0 0.0
2016-Aug-18 17:33N 51°48' E 003°23'0 0.0
2016-Aug-18 16:33N 51°48' E 003°23'0 0.1
2016-Aug-18 15:33N 51°48' E 003°23'0 0.0
2016-Aug-18 14:25N 51°48' E 003°23'0 0.0
2016-Aug-18 13:33N 51°48' E 003°23'0 0.1
2016-Aug-18 12:33N 51°48' E 003°23'0 0.1
2016-Aug-18 11:28N 51°48' E 003°23'0 0.0
2016-Aug-18 10:22N 51°48' E 003°23'0 0.0
2016-Aug-18 09:30N 51°48' E 003°23'0 0.0
2016-Aug-18 08:31N 51°48' E 003°23'0 0.0
2016-Aug-18 07:33N 51°48' E 003°23'0 0.0
2016-Aug-18 06:33N 51°48' E 003°23'0 0.0
2016-Aug-18 05:28N 51°48' E 003°23'0 0.1
2016-Aug-18 04:28N 51°48' E 003°23'0 0.1
2016-Aug-18 03:33N 51°48' E 003°23'0 0.0
2016-Aug-18 02:31N 51°48' E 003°23'0 0.0
2016-Aug-18 01:33N 51°48' E 003°24'0 0.0
2016-Aug-18 00:33N 51°48' E 003°24'0 0.2
2016-Aug-17 23:33N 51°48' E 003°23'0 0.0
2016-Aug-17 22:33N 51°48' E 003°23'0 0.0
2016-Aug-17 21:33N 51°48' E 003°23'0 0.0
2016-Aug-17 20:33N 51°48' E 003°23'0 0.0
2016-Aug-17 19:33N 51°48' E 003°23'0 0.0
2016-Aug-17 18:13N 51°48' E 003°23'0 0.0
2016-Aug-17 17:33N 51°48' E 003°23'0 0.0
2016-Aug-17 16:27N 51°48' E 003°23'0 0.1
2016-Aug-17 15:28N 51°48' E 003°23'0 0.0
2016-Aug-17 14:33N 51°48' E 003°23'0 0.0
2016-Aug-17 13:33N 51°48' E 003°23'0 0.0
2016-Aug-17 12:28N 51°48' E 003°24'0 0.2
2016-Aug-17 11:31N 51°48' E 003°23'0 0.0
2016-Aug-17 08:30N 51°48' E 003°23'0 0.0
2016-Aug-17 07:33N 51°48' E 003°23'0 0.0
2016-Aug-17 06:33N 51°48' E 003°23'0 0.0
2016-Aug-17 05:31N 51°48' E 003°23'0 0.0
2016-Aug-17 04:27N 51°48' E 003°23'0 0.0
2016-Aug-17 03:33N 51°48' E 003°23'0 0.1
2016-Aug-17 02:33N 51°48' E 003°23'0 0.0
2016-Aug-17 01:33N 51°48' E 003°23'0 0.0
2016-Aug-17 00:07N 51°48' E 003°23'0 0.1
2016-Aug-16 23:33N 51°48' E 003°23'0 0.1
2016-Aug-16 22:24N 51°48' E 003°23'0 0.0
2016-Aug-16 20:28N 51°48' E 003°23'0 0.0
2016-Aug-16 19:12N 51°48' E 003°23'0 0.0
2016-Aug-16 18:18N 51°48' E 003°23'0 0.0
2016-Aug-16 15:24N 51°48' E 003°23'0 0.0
2016-Aug-16 08:13N 51°48' E 003°23'0 0.0
2016-Aug-16 07:33N 51°48' E 003°23'0 0.0
2016-Aug-16 04:33N 51°48' E 003°23'0 0.0
2016-Aug-16 03:33N 51°48' E 003°23'0 0.0
2016-Aug-16 02:33N 51°48' E 003°23'0 0.1
2016-Aug-16 01:31N 51°48' E 003°23'0 0.0
2016-Aug-16 00:25N 51°48' E 003°23'0 0.0
2016-Aug-15 21:24N 51°48' E 003°23'  

Dump ship's entire track history